Babaculandia, Brazil
Current Conditions -  °F | °C
As of 6:00 PM on Friday 28 Nov 2014 (Local Time) from SBIZ Reporting Station
Clear Clear  
Wind Chill: 90°   Ceiling: Unl
Heat Index: 98°   Visibility: 6mi
Dew Point: 73°   Wind: 2mph
Humidity: 59%   Direction: 220°SW
Pressure: 29.8"   Gusts: NA
Location:  7.2°S, 47.76°W
Report Text: SBIZ 282100Z 22002KT CAVOK 32/23 Q1009
Loading
Personal Weather Stations






























Interactive Weather Map New forecast layout! Learn more

10-Day Weather Forecast

Advertisements
Track Severe Weather on mobile